Ave Maria, Florida
Current Conditions -  °F | °C
As of 1:35 PM on Sunday 21 Dec 2014 (Local Time) from KIMM Reporting Station
Clear Clear  
Wind Chill: 82°   Ceiling: Unl
Heat Index: 85°   Visibility: 7mi
Dew Point: 66°   Wind: 10mph
Humidity: 58%   Direction: 170°S
Pressure: 30.03"   Gusts: NA
Location:  26.4288°N, 81.4387°W
Report Text: KIMM 211835Z AUTO 17009KT 7SM CLR 28/19 A3003 RMK A01 P000
Loading
Personal Weather Stations






























Interactive Weather Map New forecast layout! Learn more

10-Day Weather Forecast

Advertisements
Track Severe Weather on mobile